Kezdőlap
METAR-TAF:

METAR-TAF

Repülőterek :

Ouargla, Algéria

földrajzi szélesség: 31-55N, földrajzi hosszúság: 005-24E, magasság: 141 m

Jelenlegi meteorológiai megfigyelések

A jelentés 33 perccel ezelõtt készült, 09:00 UTC
Dél-délkeleti szél 7 kt, délkeleti és dél-délnyugati között változik
Hőmérséklet 40°C
Páratartalom 13%
Légköri nyomás 1011 hPa
Látótávolság 10 km, vagy több
felhőtlen 1500 m magasságban, és nincs gomolyfelhõ

METAR: DAUU 210900Z 16007KT 140V210 CAVOK 40/06 Q1011

Idő: 10:33 (09:33 UTC)

Előrejelzés

A jelentés 1 órával és 33 perccel ezelõtt készült, 08:00 UTC
Az előrejelzés 21-én 09 óra UTC és 21-én 18 óra UTC között érvényes
Déli szél 8 kt
Látótávolság 10 km, vagy több
felhőtlen 1500 m magasságban, és nincs gomolyfelhõ

TAF: DAUU 210800Z 2109/2118 18008KT CAVOK

Meteorológiai megfigyelések és előrejelzések több, mint 4000 repülőtéren (METAR és TAF jelentéseket).

A térképen piros és sárga pontok jelzik az elérhető meteorológiai állomásokat.

Mozgassa az egeret a pont fölött, hogy megjelenjen az állomás neve.

Azután kattintson az időjárási megfigyelések és előrejelzések megtekintéséhez.

A térkép megváltoztatása: kattintson a fekete keresztel jelölt zöld gombra ráközelítéshez, a vonallal jelölt zöld gombra távolításhoz, vagy a zöld nyilakra a szomszédos térképek eléréséhez.


METAR-TAF: